This is the latest recevied weather packets stored in our database for station/object N4OGP-WX. If no packets are shown the sender has not sent any weather packets the latest 10 day(s).
| Time | Temp. | Humidity | Pressure | Rain* | Wind** | Luminosity | Snow |
|---|---|---|---|---|---|---|---|
| 1777595210 | 23.89° C | 42% | 1020.4 hPa | 0 mm | - | - | - |
| 1777595120 | 25° C | 74% | 1009 hPa | 0 mm | - | - | - |
| 1777595030 | 25° C | 74% | 1009 hPa | 0 mm | - | - | - |
| 1777594940 | 25° C | 74% | 1009 hPa | 0 mm | - | - | - |
| 1777594880 | 23.89° C | 42% | 1020.4 hPa | 0 mm | - | - | - |
| 1777594790 | 25° C | 73% | 1009 hPa | 0 mm | - | - | - |
| 1777594730 | 23.89° C | 42% | 1020.4 hPa | 0 mm | - | - | - |
| 1777594640 | 25° C | 73% | 1009 hPa | 0 mm | - | - | - |
| 1777594580 | 25° C | 73% | 1009 hPa | 0 mm | - | - | - |
| 1777594490 | 25° C | 73% | 1008.9 hPa | 0 mm | - | - | - |
| 1777594430 | 25° C | 73% | 1009 hPa | 0 mm | - | - | - |
| 1777594370 | 23.89° C | 42% | 1020.4 hPa | 0 mm | - | - | - |
| 1777594280 | 23.89° C | 42% | 1020.4 hPa | 0 mm | - | - | - |
| 1777594220 | 25.56° C | 74% | 1009 hPa | 0 mm | - | - | - |
| 1777594160 | 25.56° C | 74% | 1009 hPa | 0 mm | - | - | - |
| 1777594070 | 25.56° C | 73% | 1009 hPa | 0 mm | - | - | - |
| 1777594010 | 25.56° C | 74% | 1008.9 hPa | 0 mm | - | - | - |
| 1777593950 | 23.89° C | 42% | 1020.4 hPa | 0 mm | - | - | - |
| 1777593890 | 23.89° C | 42% | 1020.4 hPa | 0 mm | - | - | - |
| 1777593830 | 25.56° C | 73% | 1008.8 hPa | 0 mm | - | - | - |
| 1777593740 | 25.56° C | 73% | 1008.8 hPa | 0 mm | - | - | - |
| 1777593680 | 23.89° C | 42% | 1020.4 hPa | 0 mm | - | - | - |
| 1777593590 | 23.89° C | 42% | 1020.4 hPa | 0 mm | - | - | - |
| 1777593530 | 25.56° C | 73% | 1008.6 hPa | 0 mm | - | - | - |
| 1777593470 | 23.89° C | 42% | 1020.4 hPa | 0 mm | - | - | - |
* Rain latest hour (hover to see other rain measurements)
** Current wind speed in m/s (hover to see current wind gust speed)